Time;durP1;ratioP1;P1;durP2;ratioP2;P2;SDS_P1;SDS_P2;PMS_P1;PMS_P2;Temp;Humidity;BMP_temperature;BMP_pressure;BME280_temperature;BME280_humidity;BME280_pressure;Samples;Min_cycle;Max_cycle;Signal;HPM_P1;HPM_P2
2021/06/02 05:02:50;;;;;;;11.48;6.70;;;16.80;99.90;;;;;;5439926;23;20034;-89
2021/06/02 05:06:09;;;;;;;12.38;6.13;;;16.90;99.90;;;;;;3449691;41;20445;-85
2021/06/02 05:08:38;;;;;;;10.95;5.63;;;16.80;99.90;;;;;;3537219;23;20060;-87
2021/06/02 05:11:36;;;;;;;10.77;5.93;;;16.90;99.90;;;;;;3531359;40;20143;-87
2021/06/02 05:14:36;;;;;;;12.20;6.32;;;17.00;99.90;;;;;;3648627;23;21220;31
2021/06/02 05:20:41;;;;;;;10.48;5.50;;;17.10;99.90;;;;;;3591258;23;20066;-83
2021/06/02 05:29:32;;;;;;;12.57;7.13;;;17.20;99.90;;;;;;1198796;23;20169;-88
2021/06/02 05:32:32;;;;;;;10.63;6.65;;;17.40;99.90;;;;;;3638449;23;21137;-88
2021/06/02 05:35:27;;;;;;;10.60;5.80;;;17.50;99.90;;;;;;3766149;23;20060;-84
2021/06/02 05:38:38;;;;;;;10.20;5.68;;;17.70;99.90;;;;;;3681507;23;20027;-84
2021/06/02 05:41:41;;;;;;;13.40;5.47;;;17.80;99.90;;;;;;3624575;23;20106;31
2021/06/02 05:44:38;;;;;;;15.80;7.30;;;17.80;99.90;;;;;;1306073;23;20185;-92
2021/06/02 05:47:45;;;;;;;11.07;6.28;;;17.90;99.90;;;;;;3644184;23;20039;-90
2021/06/02 05:56:51;;;;;;;9.43;5.18;;;18.30;99.90;;;;;;1204314;23;21424;-89
2021/06/02 06:08:58;;;;;;;17.17;6.38;;;18.90;99.90;;;;;;1243788;23;21472;-89
2021/06/02 06:17:40;;;;;;;9.73;5.55;;;19.10;99.90;;;;;;1390702;23;20830;-91
2021/06/02 06:38:48;;;;;;;7.25;4.78;;;19.30;99.90;;;;;;1276256;23;20185;-88
2021/06/02 06:41:24;;;;;;;10.90;5.50;;;19.50;99.90;;;;;;3667932;23;20054;-86
2021/06/02 06:46:42;;;;;;;7.75;4.75;;;19.90;99.90;;;;;;1349503;23;20189;-89
2021/06/02 06:49:12;;;;;;;9.55;5.05;;;19.90;99.90;;;;;;3806006;23;20065;-86
2021/06/02 06:52:04;;;;;;;10.57;4.95;;;20.00;99.90;;;;;;1271900;23;20229;-88
2021/06/02 06:54:34;;;;;;;9.35;5.40;;;20.10;99.90;;;;;;3542679;40;20099;-83
2021/06/02 06:57:03;;;;;;;9.68;5.00;;;20.30;99.90;;;;;;3534222;40;20095;-84
2021/06/02 06:59:33;;;;;;;7.63;4.40;;;20.40;99.90;;;;;;3559101;40;20082;-86
2021/06/02 07:02:03;;;;;;;6.15;4.15;;;20.50;99.40;;;;;;3543665;23;20023;31
2021/06/02 07:04:33;;;;;;;11.40;4.57;;;20.60;98.40;;;;;;3524729;40;20027;-85
2021/06/02 07:09:58;;;;;;;10.57;4.25;;;20.70;95.70;;;;;;3673771;23;20223;-87
2021/06/02 07:15:17;;;;;;;7.35;3.95;;;20.80;94.40;;;;;;3539229;40;20072;-87
2021/06/02 07:17:47;;;;;;;11.70;4.60;;;20.80;93.80;;;;;;3523778;40;20091;-86
2021/06/02 07:20:21;;;;;;;10.00;4.07;;;20.80;93.60;;;;;;3512580;40;20083;-84
2021/06/02 07:22:50;;;;;;;10.13;4.28;;;20.90;93.10;;;;;;3520161;40;20067;-85
2021/06/02 07:25:22;;;;;;;7.97;3.83;;;21.10;92.80;;;;;;3528449;40;20067;-84
2021/06/02 07:27:50;;;;;;;9.82;3.80;;;21.10;92.20;;;;;;3513281;40;20071;-84
2021/06/02 07:30:19;;;;;;;6.60;3.65;;;21.20;91.20;;;;;;3519632;40;20085;-84
2021/06/02 07:32:51;;;;;;;8.13;3.95;;;21.20;91.50;;;;;;3526491;40;20087;-85
2021/06/02 07:35:18;;;;;;;5.72;3.40;;;21.30;90.80;;;;;;3520064;40;20095;-85
2021/06/02 07:37:47;;;;;;;11.23;4.03;;;21.30;90.10;;;;;;3519870;40;20083;-83
2021/06/02 07:40:15;;;;;;;6.78;3.63;;;21.50;89.40;;;;;;3520319;40;20143;-86
2021/06/02 07:42:44;;;;;;;6.30;3.70;;;21.80;87.10;;;;;;3528055;40;20387;-84
2021/06/02 07:45:15;;;;;;;6.63;3.28;;;22.00;84.30;;;;;;3501426;41;20055;-86
2021/06/02 07:47:44;;;;;;;5.72;3.28;;;22.10;83.70;;;;;;3503298;41;20037;-84
2021/06/02 07:50:13;;;;;;;7.25;3.67;;;22.40;82.40;;;;;;3487806;41;20064;-83
2021/06/02 07:52:40;;;;;;;6.97;3.30;;;22.60;80.30;;;;;;3496543;41;20043;-85
2021/06/02 07:55:10;;;;;;;7.57;3.15;;;22.50;80.00;;;;;;3487777;41;20060;-86
2021/06/02 07:57:39;;;;;;;9.38;3.22;;;22.70;78.90;;;;;;3495317;41;20065;-85
2021/06/02 08:00:12;;;;;;;8.57;3.00;;;22.70;77.10;;;;;;3495006;41;20069;-86
2021/06/02 08:02:43;;;;;;;7.05;3.00;;;22.60;75.10;;;;;;3503806;41;20057;-87
2021/06/02 08:05:15;;;;;;;8.25;3.30;;;22.60;74.80;;;;;;3502690;41;20044;-87
2021/06/02 08:07:43;;;;;;;7.00;2.95;;;22.60;74.60;;;;;;3494779;41;20072;-85
2021/06/02 08:10:12;;;;;;;4.43;2.60;;;22.40;72.60;;;;;;3504776;41;20061;-85
2021/06/02 08:12:40;;;;;;;5.90;2.95;;;22.20;73.30;;;;;;3496702;41;20056;-88
2021/06/02 08:15:12;;;;;;;8.15;2.75;;;22.00;72.20;;;;;;3512059;40;20052;-84
2021/06/02 08:17:40;;;;;;;6.80;2.42;;;21.80;72.30;;;;;;3522562;40;20054;-86
2021/06/02 08:20:10;;;;;;;6.35;2.88;;;21.70;72.00;;;;;;3523436;40;20083;-86
2021/06/02 08:22:39;;;;;;;7.95;2.72;;;21.60;70.40;;;;;;3530974;40;20312;-85
2021/06/02 08:25:11;;;;;;;6.60;2.53;;;21.50;71.70;;;;;;3532259;40;20085;-85
2021/06/02 08:27:39;;;;;;;8.55;2.53;;;21.60;71.00;;;;;;3529041;40;20064;-85
2021/06/02 08:30:08;;;;;;;7.17;2.83;;;21.60;70.80;;;;;;3519913;40;20321;-87
2021/06/02 08:32:38;;;;;;;8.27;2.90;;;21.80;70.60;;;;;;3522974;40;20299;-86
2021/06/02 08:35:09;;;;;;;4.20;2.40;;;22.00;70.00;;;;;;3530638;40;20039;-84
2021/06/02 08:37:40;;;;;;;7.32;2.70;;;22.40;69.30;;;;;;3540432;40;20395;-85
2021/06/02 08:40:09;;;;;;;8.18;3.50;;;22.80;68.20;;;;;;3539260;40;20091;-86
2021/06/02 08:42:41;;;;;;;5.22;2.45;;;23.10;67.50;;;;;;3531687;40;20043;-85
2021/06/02 08:45:10;;;;;;;8.38;2.47;;;23.30;65.90;;;;;;3539432;40;20383;-85
2021/06/02 08:47:42;;;;;;;6.53;3.15;;;23.50;63.00;;;;;;3529761;40;20036;-84
2021/06/02 08:50:11;;;;;;;5.93;2.65;;;23.50;64.10;;;;;;3526777;40;20036;-84
2021/06/02 08:52:42;;;;;;;8.93;2.58;;;23.50;64.40;;;;;;3530066;40;20039;-85
2021/06/02 08:55:11;;;;;;;8.50;3.03;;;23.30;63.70;;;;;;3540726;40;20039;-84
2021/06/02 08:57:40;;;;;;;6.22;2.60;;;23.10;65.00;;;;;;3538796;40;20035;-86
2021/06/02 09:00:11;;;;;;;4.68;2.58;;;23.00;63.60;;;;;;3531949;40;20068;-85
2021/06/02 09:02:46;;;;;;;4.15;2.50;;;23.00;62.10;;;;;;3540307;40;20043;-86
2021/06/02 09:05:30;;;;;;;8.43;2.47;;;22.80;63.10;;;;;;3534182;40;20046;-85
2021/06/02 09:08:00;;;;;;;6.43;2.38;;;22.80;63.90;;;;;;3526005;40;20035;-89
2021/06/02 09:10:28;;;;;;;6.35;2.40;;;22.70;63.10;;;;;;3529772;40;20039;-86
2021/06/02 09:12:58;;;;;;;4.33;2.40;;;22.60;61.60;;;;;;3529904;40;20054;-86
2021/06/02 09:15:33;;;;;;;6.22;2.08;;;22.40;61.60;;;;;;3529894;40;20031;-86
2021/06/02 09:18:05;;;;;;;3.95;2.20;;;22.30;60.30;;;;;;3529454;40;20071;-88
2021/06/02 09:20:41;;;;;;;5.35;3.50;;;22.30;61.60;;;;;;3538204;40;20382;-84
2021/06/02 09:23:33;;;;;;;6.88;2.35;;;22.50;61.30;;;;;;3538028;40;20079;-86
2021/06/02 09:26:15;;;;;;;3.63;2.15;;;22.60;60.20;;;;;;3532662;40;20035;-87
2021/06/02 09:29:02;;;;;;;6.45;2.00;;;22.70;59.50;;;;;;3524744;40;20087;-86
2021/06/02 09:31:32;;;;;;;6.97;2.30;;;22.90;58.80;;;;;;3529979;40;20091;-86
2021/06/02 09:34:13;;;;;;;3.97;1.92;;;23.00;59.10;;;;;;3533774;40;20050;-85
2021/06/02 09:36:42;;;;;;;5.30;2.08;;;23.00;57.40;;;;;;3541153;40;20047;-88
2021/06/02 09:39:12;;;;;;;4.43;2.20;;;23.00;57.10;;;;;;3536448;40;20087;-85
2021/06/02 09:41:41;;;;;;;5.00;2.13;;;23.20;56.60;;;;;;3521289;40;20095;-86
2021/06/02 09:44:21;;;;;;;5.78;2.35;;;23.30;56.10;;;;;;3528564;40;20075;-84
2021/06/02 09:47:04;;;;;;;7.15;2.47;;;23.40;57.10;;;;;;3538994;40;20458;-87
2021/06/02 09:49:48;;;;;;;10.95;2.95;;;23.60;57.90;;;;;;3540828;40;20031;-85
2021/06/02 09:52:16;;;;;;;4.60;2.13;;;23.80;56.60;;;;;;3530567;40;20064;-85
2021/06/02 09:54:46;;;;;;;4.25;2.20;;;23.90;55.10;;;;;;3531470;40;20043;-85
2021/06/02 09:57:15;;;;;;;8.55;3.10;;;24.00;53.70;;;;;;3522323;40;20079;-86
2021/06/02 09:59:56;;;;;;;7.38;3.47;;;24.10;52.70;;;;;;3523856;40;20047;-86
2021/06/02 10:02:23;;;;;;;6.50;3.20;;;24.30;51.30;;;;;;3513295;40;20067;-85
2021/06/02 10:05:04;;;;;;;4.80;2.22;;;24.30;51.00;;;;;;3531283;40;20067;-85
2021/06/02 10:07:43;;;;;;;6.38;2.33;;;24.40;50.90;;;;;;3532050;40;20058;-85
2021/06/02 10:10:18;;;;;;;4.95;2.10;;;24.70;51.50;;;;;;3520546;40;20376;-85
2021/06/02 10:12:58;;;;;;;11.32;3.17;;;25.00;51.00;;;;;;3520592;40;20092;-87
2021/06/02 10:15:28;;;;;;;3.55;2.20;;;25.60;48.80;;;;;;3609143;23;20067;-86
2021/06/02 10:17:56;;;;;;;8.68;2.80;;;26.50;48.60;;;;;;3544468;40;20087;-85
2021/06/02 10:20:25;;;;;;;5.22;2.33;;;27.50;47.50;;;;;;3544128;40;20089;-84
2021/06/02 10:22:54;;;;;;;7.00;2.40;;;28.40;46.40;;;;;;3537763;40;20300;-84
2021/06/02 10:25:23;;;;;;;3.72;1.95;;;29.10;44.60;;;;;;3536983;40;20098;-86
2021/06/02 10:27:56;;;;;;;3.70;1.70;;;29.80;42.90;;;;;;3537087;40;20054;-85
2021/06/02 10:30:25;;;;;;;3.42;1.75;;;30.40;41.00;;;;;;3519908;40;20091;-86
2021/06/02 10:32:55;;;;;;;5.80;2.72;;;30.90;40.40;;;;;;3516283;40;20087;-85
2021/06/02 10:35:22;;;;;;;5.55;2.20;;;31.30;39.10;;;;;;3526581;40;20083;-85
2021/06/02 10:37:55;;;;;;;3.25;1.77;;;31.70;38.50;;;;;;3516870;40;20095;-86
2021/06/02 10:40:26;;;;;;;2.92;1.80;;;32.30;39.00;;;;;;3516015;40;20091;-86
2021/06/02 10:42:58;;;;;;;7.22;1.85;;;32.80;38.30;;;;;;3515324;40;20087;-87
2021/06/02 10:45:31;;;;;;;3.50;1.90;;;33.20;38.00;;;;;;3522448;40;20082;-84
2021/06/02 10:48:00;;;;;;;4.70;2.15;;;33.70;37.30;;;;;;3522767;40;20063;-85
2021/06/02 10:50:35;;;;;;;4.95;2.17;;;34.20;35.40;;;;;;3524263;40;20079;-87
2021/06/02 10:53:25;;;;;;;5.97;2.83;;;34.20;35.90;;;;;;3525884;40;20071;-87
2021/06/02 10:55:57;;;;;;;5.25;2.15;;;34.10;35.30;;;;;;3531448;40;20150;-85
2021/06/02 10:58:31;;;;;;;3.80;2.15;;;34.10;35.80;;;;;;3518259;40;20086;-87
2021/06/02 11:01:14;;;;;;;4.78;2.08;;;33.90;36.10;;;;;;3530869;40;20426;-87
2021/06/02 11:03:43;;;;;;;5.35;2.00;;;34.30;36.10;;;;;;3524708;40;20075;-87
2021/06/02 11:06:36;;;;;;;4.60;1.80;;;35.00;34.90;;;;;;3512956;40;20091;-85
2021/06/02 11:09:22;;;;;;;7.03;2.70;;;36.30;33.00;;;;;;3542025;40;20074;-84
2021/06/02 11:12:04;;;;;;;6.05;2.05;;;37.00;32.40;;;;;;3541173;40;20071;-85
2021/06/02 11:14:35;;;;;;;16.73;4.50;;;36.90;32.60;;;;;;3526804;40;20089;-85
2021/06/02 11:17:12;;;;;;;3.72;1.90;;;37.00;32.50;;;;;;3544578;40;20082;-84
2021/06/02 11:19:42;;;;;;;3.42;1.85;;;37.40;32.30;;;;;;3530398;40;20114;-86
2021/06/02 11:22:15;;;;;;;3.20;1.77;;;37.90;32.40;;;;;;3525713;40;20114;-86
2021/06/02 11:24:49;;;;;;;5.78;2.40;;;38.30;32.00;;;;;;3524503;40;20067;-85
2021/06/02 11:27:39;;;;;;;3.88;2.25;;;38.80;32.20;;;;;;3537768;40;20107;-86
2021/06/02 11:30:27;;;;;;;5.05;2.20;;;39.30;31.00;;;;;;3542352;40;20027;-83
2021/06/02 11:33:05;;;;;;;5.82;2.20;;;39.50;31.20;;;;;;3522543;40;20079;-85
2021/06/02 11:36:12;;;;;;;4.72;2.10;;;39.90;29.90;;;;;;3523865;40;20097;-85
2021/06/02 11:38:42;;;;;;;4.05;1.98;;;39.70;29.70;;;;;;3516350;40;20090;-84
2021/06/02 11:41:13;;;;;;;3.47;1.92;;;39.80;30.00;;;;;;3523535;40;20079;-84
2021/06/02 11:43:41;;;;;;;3.75;1.98;;;39.90;29.80;;;;;;3532802;40;20094;-86
2021/06/02 11:46:11;;;;;;;3.63;1.90;;;40.30;29.60;;;;;;3523459;40;20086;-84
2021/06/02 11:48:38;;;;;;;4.45;2.33;;;40.20;29.80;;;;;;3531034;40;20319;-82
2021/06/02 11:51:24;;;;;;;5.32;2.70;;;40.20;29.70;;;;;;3522453;40;20078;-85
2021/06/02 11:53:52;;;;;;;5.80;2.65;;;40.90;29.60;;;;;;3530657;40;20070;-86
2021/06/02 11:56:21;;;;;;;7.50;2.00;;;41.30;29.50;;;;;;3523318;40;20094;-85
2021/06/02 12:03:09;;;;;;;3.85;2.00;;;41.80;29.10;;;;;;3525378;40;20070;-84
2021/06/02 12:05:38;;;;;;;5.93;2.22;;;41.70;29.00;;;;;;3523212;40;20099;-87
2021/06/02 12:08:07;;;;;;;4.65;2.20;;;40.20;29.70;;;;;;3523503;40;20080;-84
2021/06/02 12:10:38;;;;;;;4.53;2.00;;;40.30;30.10;;;;;;3524973;40;20110;-86
2021/06/02 12:13:13;;;;;;;4.65;2.88;;;40.50;30.00;;;;;;3528388;40;20086;-87
2021/06/02 12:15:43;;;;;;;3.35;2.00;;;40.70;29.60;;;;;;3521849;40;20075;-86
2021/06/02 12:18:27;;;;;;;5.82;2.25;;;40.30;30.30;;;;;;3524776;40;20357;-84
2021/06/02 12:21:09;;;;;;;7.30;2.55;;;41.30;29.50;;;;;;3538825;40;20090;-84
2021/06/02 12:23:49;;;;;;;5.43;2.53;;;41.00;29.70;;;;;;3533112;40;20067;-84
2021/06/02 12:26:23;;;;;;;5.05;2.53;;;40.50;30.00;;;;;;3540060;40;20086;-84
2021/06/02 12:28:57;;;;;;;4.35;2.42;;;40.50;29.80;;;;;;3532189;40;20094;-84
2021/06/02 12:31:39;;;;;;;4.47;2.70;;;40.40;30.20;;;;;;3532433;40;20074;-84
2021/06/02 12:34:12;;;;;;;5.88;2.60;;;40.80;29.70;;;;;;3538817;40;20075;-85
2021/06/02 12:36:49;;;;;;;3.75;2.22;;;41.40;29.20;;;;;;3533611;40;20074;-86
2021/06/02 12:40:14;;;;;;;5.30;2.20;;;41.70;28.90;;;;;;3540260;40;20090;-86
2021/06/02 12:42:55;;;;;;;4.15;1.95;;;42.10;29.00;;;;;;3544229;40;20059;-85
2021/06/02 12:45:36;;;;;;;4.45;2.30;;;42.10;29.10;;;;;;3510032;40;20087;-85
2021/06/02 12:48:07;;;;;;;3.10;1.90;;;42.10;29.10;;;;;;3536376;40;20074;-87
2021/06/02 12:50:46;;;;;;;4.72;2.10;;;42.50;29.00;;;;;;3533198;40;20087;-86
2021/06/02 12:53:19;;;;;;;6.32;3.00;;;42.80;28.90;;;;;;3522839;40;20075;-86
2021/06/02 12:55:50;;;;;;;3.70;2.10;;;43.40;28.90;;;;;;3540495;40;20063;-88
2021/06/02 12:58:19;;;;;;;4.47;2.28;;;43.30;28.50;;;;;;3532477;40;20113;-84
2021/06/02 13:00:50;;;;;;;10.15;2.45;;;43.40;28.50;;;;;;3533949;40;20062;-86
2021/06/02 13:03:21;;;;;;;5.25;2.67;;;43.50;28.40;;;;;;3533393;40;20330;-85
2021/06/02 13:05:51;;;;;;;5.90;2.40;;;43.60;28.10;;;;;;3540008;40;20134;-87
2021/06/02 13:13:16;;;;;;;9.35;2.90;;;42.60;28.10;;;;;;3496444;41;20126;-87
2021/06/02 13:15:55;;;;;;;5.88;2.10;;;41.80;29.00;;;;;;3482627;41;20429;-86
2021/06/02 13:18:25;;;;;;;5.57;2.10;;;41.90;28.50;;;;;;3488752;41;20061;-88
2021/06/02 13:20:54;;;;;;;3.33;2.00;;;42.20;28.50;;;;;;3497519;41;20300;-87
2021/06/02 13:23:24;;;;;;;4.88;2.35;;;42.20;28.60;;;;;;3489970;41;20065;-85
2021/06/02 13:26:02;;;;;;;5.32;2.90;;;42.60;28.30;;;;;;3494081;41;20072;-89
2021/06/02 13:28:41;;;;;;;3.83;2.15;;;42.40;28.40;;;;;;3493507;41;20041;-90
2021/06/02 13:31:16;;;;;;;4.43;2.13;;;41.90;28.40;;;;;;3494175;41;20033;-87
2021/06/02 13:33:45;;;;;;;4.88;1.80;;;40.90;28.70;;;;;;3495559;41;20081;-87
2021/06/02 13:36:38;;;;;;;5.72;2.38;;;39.20;29.50;;;;;;3488569;41;20084;-86
2021/06/02 13:39:20;;;;;;;3.28;2.00;;;39.00;29.80;;;;;;3487314;41;20431;-87
2021/06/02 13:42:00;;;;;;;4.95;2.28;;;39.80;29.40;;;;;;3487052;41;20458;-86
2021/06/02 13:44:30;;;;;;;4.15;2.03;;;40.80;29.00;;;;;;3490527;41;20088;-88
2021/06/02 13:46:59;;;;;;;5.88;2.30;;;41.60;28.60;;;;;;3497578;41;20073;-87
2021/06/02 13:49:36;;;;;;;3.53;1.90;;;42.10;28.60;;;;;;3543679;40;20176;-86
2021/06/02 13:52:05;;;;;;;5.97;2.22;;;42.50;28.20;;;;;;3528890;40;20070;-88
2021/06/02 13:54:33;;;;;;;6.72;2.40;;;42.60;27.90;;;;;;3537313;40;20071;-86
2021/06/02 13:57:07;;;;;;;4.65;1.92;;;42.60;27.80;;;;;;3536269;40;20099;-88
2021/06/02 13:59:43;;;;;;;4.43;2.15;;;42.60;27.90;;;;;;3522502;40;20074;-88
2021/06/02 14:02:20;;;;;;;4.75;2.40;;;42.40;28.10;;;;;;3528530;40;20086;-88
2021/06/02 14:04:51;;;;;;;9.20;2.80;;;42.30;28.20;;;;;;3532125;40;20303;-86
2021/06/02 14:07:22;;;;;;;6.70;2.50;;;42.10;28.30;;;;;;3530879;40;20075;-89
2021/06/02 14:09:53;;;;;;;4.25;2.53;;;41.90;28.50;;;;;;3529882;40;20067;-87
2021/06/02 14:12:24;;;;;;;4.90;2.13;;;42.00;28.30;;;;;;3529450;40;20095;-87
2021/06/02 14:18:06;;;;;;;5.55;2.28;;;42.70;28.00;;;;;;3552961;40;20069;-87
2021/06/02 14:20:35;;;;;;;4.45;1.73;;;43.20;27.30;;;;;;3555596;40;20078;-85
2021/06/02 14:23:07;;;;;;;3.65;2.00;;;43.20;27.40;;;;;;3546818;40;20098;-86
2021/06/02 14:28:31;;;;;;;5.25;1.80;;;43.50;27.10;;;;;;3547760;40;20058;-86
2021/06/02 14:31:12;;;;;;;4.55;1.92;;;42.50;27.50;;;;;;3554770;40;20322;-88
2021/06/02 14:33:48;;;;;;;4.82;2.20;;;42.20;28.00;;;;;;3546018;40;20059;-84
2021/06/02 14:36:18;;;;;;;4.20;2.20;;;42.40;27.80;;;;;;3547691;40;20063;-87
2021/06/02 14:39:05;;;;;;;4.60;1.80;;;42.50;27.80;;;;;;3524939;40;20090;-85
2021/06/02 14:41:55;;;;;;;4.43;1.80;;;42.50;27.50;;;;;;3528037;40;20379;-83
2021/06/02 14:44:45;;;;;;;3.83;2.10;;;42.20;27.20;;;;;;3539597;40;20086;-86
2021/06/02 14:47:18;;;;;;;3.00;1.80;;;41.70;27.70;;;;;;3533824;40;20083;-84
2021/06/02 14:49:47;;;;;;;4.47;2.22;;;41.80;27.80;;;;;;3540291;40;20066;-86
2021/06/02 14:52:33;;;;;;;4.18;2.00;;;41.90;27.80;;;;;;3534110;40;20086;-86
2021/06/02 14:55:02;;;;;;;2.60;1.60;;;42.40;27.70;;;;;;3542463;40;20078;-87
2021/06/02 14:57:33;;;;;;;3.97;2.13;;;42.80;27.40;;;;;;3537574;40;20034;-87
2021/06/02 15:00:18;;;;;;;;;;;;;;;;;;;;;
2021/06/02 15:02:55;;;;;;;12.77;2.33;;;43.50;27.10;;;;;;3544917;40;20052;-85
2021/06/02 15:05:34;;;;;;;4.80;2.00;;;43.50;27.10;;;;;;3560464;40;20038;-88
2021/06/02 15:08:13;;;;;;;4.57;2.05;;;43.10;27.00;;;;;;3550739;40;20070;-87
2021/06/02 15:10:43;;;;;;;5.30;2.80;;;42.50;27.40;;;;;;3541858;40;20066;-86
2021/06/02 15:13:17;;;;;;;5.68;2.38;;;42.00;27.50;;;;;;3550551;40;20492;-88
2021/06/02 15:15:46;;;;;;;4.95;2.20;;;41.80;27.40;;;;;;3551473;40;20050;-88
2021/06/02 15:18:38;;;;;;;4.50;1.98;;;41.90;27.60;;;;;;3543835;40;20079;-88
2021/06/02 15:21:10;;;;;;;6.65;2.38;;;41.60;27.70;;;;;;3547564;40;20121;-87
2021/06/02 15:23:41;;;;;;;4.72;2.03;;;41.50;27.60;;;;;;3551631;40;20078;-88
2021/06/02 15:26:17;;;;;;;7.03;2.00;;;41.50;27.50;;;;;;3542341;40;20054;-86
2021/06/02 15:28:48;;;;;;;5.00;1.73;;;41.30;27.60;;;;;;3538631;40;20379;-88
2021/06/02 15:31:16;;;;;;;3.85;1.80;;;41.00;27.50;;;;;;3533403;40;20070;-86
2021/06/02 15:33:44;;;;;;;;;;;40.80;27.60;;;;;;3536549;40;20109;-87
2021/06/02 15:36:13;;;;;;;6.47;2.38;;;40.80;27.60;;;;;;3543312;40;19965;-83
2021/06/02 15:39:01;;;;;;;6.68;2.45;;;41.10;28.00;;;;;;3533818;40;20078;-82
2021/06/02 15:41:45;;;;;;;3.95;1.60;;;41.30;27.40;;;;;;3532243;40;20086;-83
2021/06/02 15:44:17;;;;;;;7.45;2.72;;;41.70;27.10;;;;;;3541802;40;20090;-84
2021/06/02 15:46:46;;;;;;;3.35;1.60;;;41.30;27.10;;;;;;3552744;40;20062;-86
2021/06/02 15:49:18;;;;;;;4.82;2.40;;;40.90;26.80;;;;;;3543325;40;20082;-88
2021/06/02 15:51:55;;;;;;;3.72;1.80;;;39.50;27.40;;;;;;3534688;40;20074;-86
2021/06/02 15:54:23;;;;;;;;;;;37.80;28.10;;;;;;3525087;40;20091;-85
2021/06/02 15:56:56;;;;;;;3.20;1.60;;;36.10;28.90;;;;;;3532660;40;20326;-84
2021/06/02 15:59:27;;;;;;;5.60;1.50;;;36.20;28.80;;;;;;3550783;40;20281;-84
2021/06/02 16:02:06;;;;;;;5.78;1.73;;;37.50;28.60;;;;;;3542648;40;20049;-87
2021/06/02 16:04:39;;;;;;;2.85;1.38;;;38.50;27.60;;;;;;3535650;40;20074;-86
2021/06/02 16:07:15;;;;;;;3.65;1.90;;;39.50;27.00;;;;;;3541630;40;20082;-86
2021/06/02 16:09:43;;;;;;;4.10;1.40;;;39.90;26.80;;;;;;3549247;40;20408;-84
2021/06/02 16:12:24;;;;;;;2.88;1.58;;;40.40;26.70;;;;;;3548657;40;20062;-87
2021/06/02 16:14:52;;;;;;;4.68;1.60;;;40.60;26.50;;;;;;3536913;40;20074;-87
2021/06/02 16:17:20;;;;;;;5.75;1.75;;;40.50;26.40;;;;;;3551919;40;20078;-85
2021/06/02 16:19:47;;;;;;;;;;;40.40;26.50;;;;;;3552356;40;20126;-86
2021/06/02 16:22:18;;;;;;;6.20;1.73;;;40.40;26.60;;;;;;3576862;40;19962;-85
2021/06/02 16:24:50;;;;;;;4.90;1.90;;;40.40;26.40;;;;;;3552082;40;20086;-85
2021/06/02 16:27:22;;;;;;;3.40;2.00;;;40.30;26.60;;;;;;3569300;40;20045;-85
2021/06/02 16:29:57;;;;;;;4.25;1.70;;;40.30;26.40;;;;;;3550250;40;20062;-87
2021/06/02 16:32:30;;;;;;;6.32;1.92;;;40.40;26.30;;;;;;3551394;40;20049;-87
2021/06/02 16:35:05;;;;;;;5.40;2.22;;;40.50;26.50;;;;;;3557816;40;20038;-86
2021/06/02 16:37:34;;;;;;;3.70;1.60;;;40.60;26.30;;;;;;3558563;40;20417;-85
2021/06/02 16:40:05;;;;;;;4.13;1.73;;;40.50;26.50;;;;;;3549397;40;20071;-86
2021/06/02 16:42:36;;;;;;;4.60;2.15;;;40.50;26.50;;;;;;3547220;40;20089;-85
2021/06/02 16:45:07;;;;;;;3.60;1.70;;;40.40;26.50;;;;;;3550401;40;20077;-86
2021/06/02 16:47:42;;;;;;;8.02;2.08;;;40.20;26.30;;;;;;3566955;40;20086;-87
2021/06/02 16:50:17;;;;;;;6.13;2.05;;;40.10;26.70;;;;;;3551721;40;20078;-86
2021/06/02 16:52:57;;;;;;;10.80;4.47;;;39.70;26.40;;;;;;3544625;40;20233;-84
2021/06/02 16:55:55;;;;;;;5.28;2.10;;;39.00;27.00;;;;;;3550771;40;20038;-87
2021/06/02 16:58:42;;;;;;;2.70;1.42;;;38.80;27.20;;;;;;3551185;40;20043;-86
2021/06/02 17:01:41;;;;;;;3.92;1.70;;;38.90;27.10;;;;;;3557640;40;20045;-84
2021/06/02 17:04:10;;;;;;;5.30;1.60;;;38.90;27.30;;;;;;3551644;40;20030;-85
2021/06/02 17:06:40;;;;;;;3.40;1.80;;;38.80;27.20;;;;;;3545137;40;20042;-87
2021/06/02 17:09:11;;;;;;;6.60;1.63;;;38.40;27.20;;;;;;3549764;40;20311;-86
2021/06/02 17:11:41;;;;;;;6.97;2.20;;;37.90;27.60;;;;;;3550419;40;20058;-87
2021/06/02 17:14:20;;;;;;;4.88;2.30;;;37.40;27.70;;;;;;3568876;40;20070;-83
2021/06/02 17:16:53;;;;;;;3.58;1.80;;;36.00;28.40;;;;;;3551928;40;20034;-86
2021/06/02 17:20:02;;;;;;;6.32;2.33;;;34.50;29.40;;;;;;3556345;40;20045;-87
2021/06/02 17:22:41;;;;;;;5.68;2.10;;;32.90;30.60;;;;;;3576963;40;20053;-86
2021/06/02 17:25:57;;;;;;;5.05;1.80;;;31.60;32.70;;;;;;3555520;40;20049;-83
2021/06/02 17:29:02;;;;;;;5.18;2.35;;;30.70;34.30;;;;;;3557567;40;20391;-83
2021/06/02 17:32:03;;;;;;;;;;;;;;;;;;;;;
2021/06/02 17:37:38;;;;;;;;;;;29.00;37.60;;;;;;3562244;40;20054;-84
2021/06/02 17:40:06;;;;;;;9.70;2.58;;;28.80;38.10;;;;;;3553578;40;19955;-88
2021/06/02 17:45:31;;;;;;;8.00;2.88;;;28.40;41.00;;;;;;3570320;40;20062;-85
2021/06/02 17:48:02;;;;;;;8.05;2.75;;;28.20;42.40;;;;;;3585399;23;20322;-85
2021/06/02 17:50:30;;;;;;;7.32;2.97;;;28.00;43.50;;;;;;3561421;40;20030;-89
2021/06/02 17:53:08;;;;;;;5.85;2.70;;;27.80;44.50;;;;;;3544154;40;20050;-86
2021/06/02 17:55:45;;;;;;;9.48;4.95;;;27.50;45.40;;;;;;3581167;23;20046;-85
2021/06/02 17:58:16;;;;;;;7.78;3.72;;;27.30;46.40;;;;;;3687172;23;20763;-84
2021/06/02 18:04:12;;;;;;;7.30;3.05;;;26.70;47.90;;;;;;3806945;23;20079;-86
2021/06/02 18:06:41;;;;;;;5.35;3.00;;;26.40;48.40;;;;;;3543908;40;20494;-84
2021/06/02 18:10:14;;;;;;;4.68;2.90;;;26.20;48.50;;;;;;3544404;40;20074;-83
2021/06/02 18:12:56;;;;;;;5.40;2.95;;;26.00;48.90;;;;;;3552134;40;20302;-84
2021/06/02 18:15:24;;;;;;;9.25;3.15;;;25.90;49.10;;;;;;3547323;40;20062;-85
2021/06/02 18:17:59;;;;;;;6.03;2.70;;;25.70;49.20;;;;;;3600340;23;20035;-85
2021/06/02 18:29:41;;;;;;;9.32;3.20;;;25.20;49.80;;;;;;1281726;23;20164;-87
2021/06/02 18:35:33;;;;;;;6.47;3.20;;;24.90;50.40;;;;;;1355004;23;21612;-86
2021/06/02 18:38:09;;;;;;;7.80;2.70;;;24.80;51.00;;;;;;3545207;40;20034;-85
2021/06/02 18:40:53;;;;;;;10.32;4.25;;;24.70;52.00;;;;;;3557947;40;20074;-87
2021/06/02 18:43:38;;;;;;;6.43;3.10;;;24.60;51.90;;;;;;3541186;40;20099;-84
2021/06/02 19:07:56;;;;;;;7.32;3.03;;;23.40;56.40;;;;;;4499693;23;20062;-85
2021/06/02 19:10:45;;;;;;;7.05;3.10;;;23.20;56.90;;;;;;3519667;40;20084;-85
2021/06/02 19:13:27;;;;;;;8.73;3.88;;;23.10;57.60;;;;;;3520210;40;20111;-84
2021/06/02 19:16:05;;;;;;;10.68;3.10;;;23.00;57.90;;;;;;3521298;40;20084;-83
2021/06/02 19:18:34;;;;;;;10.48;4.05;;;22.90;58.10;;;;;;3500272;41;20087;-84
2021/06/02 19:21:06;;;;;;;8.95;3.65;;;22.80;58.30;;;;;;3497922;41;20372;-84
2021/06/02 19:23:38;;;;;;;9.18;3.70;;;22.70;59.20;;;;;;3500764;41;20072;-84
2021/06/02 19:26:15;;;;;;;6.45;3.05;;;22.60;59.20;;;;;;3496203;41;20349;-84
2021/06/02 19:28:47;;;;;;;10.02;3.60;;;22.40;59.50;;;;;;3480108;41;20060;-83
2021/06/02 19:31:29;;;;;;;6.75;3.28;;;22.40;59.80;;;;;;3490171;41;20084;-83
2021/06/02 19:34:16;;;;;;;9.35;4.60;;;22.30;59.80;;;;;;3499112;41;20132;-85
2021/06/02 19:39:47;;;;;;;9.15;3.55;;;22.10;60.40;;;;;;3490426;41;20076;-83
2021/06/02 19:42:17;;;;;;;;;;;22.10;60.40;;;;;;3466074;41;20101;-83
2021/06/02 19:47:43;;;;;;;4.90;3.15;;;21.90;60.70;;;;;;3467113;41;20093;-81
2021/06/02 19:50:18;;;;;;;9.25;3.33;;;21.80;60.80;;;;;;3462809;41;20403;-82
2021/06/02 19:52:49;;;;;;;9.98;3.50;;;21.70;61.20;;;;;;3471735;41;20074;-83
2021/06/02 19:55:29;;;;;;;10.18;3.63;;;21.60;61.30;;;;;;3472010;41;20052;-84
2021/06/02 20:01:11;;;;;;;6.88;3.63;;;21.50;61.90;;;;;;3549142;40;20064;-85
2021/06/02 20:03:49;;;;;;;7.97;3.17;;;21.40;62.20;;;;;;3537810;40;20111;-84
2021/06/02 20:09:39;;;;;;;4.95;3.30;;;21.30;62.80;;;;;;3547189;40;20070;-85
2021/06/02 20:12:16;;;;;;;7.43;3.45;;;21.20;62.90;;;;;;3549217;40;20070;-83
2021/06/02 20:14:48;;;;;;;4.53;2.67;;;21.20;63.20;;;;;;3535322;40;20099;-79
2021/06/02 20:17:19;;;;;;;5.30;3.08;;;21.10;63.70;;;;;;3537996;40;20067;-80
2021/06/02 20:19:58;;;;;;;5.00;2.50;;;21.00;64.00;;;;;;3527975;40;20068;-82
2021/06/02 20:28:20;;;;;;;6.57;3.25;;;20.80;65.30;;;;;;3567442;40;20070;-81
2021/06/02 20:33:55;;;;;;;6.97;3.30;;;20.60;66.20;;;;;;3566526;40;19940;-80
2021/06/02 20:40:15;;;;;;;5.10;2.88;;;20.60;67.30;;;;;;3543929;40;20056;-81
2021/06/02 20:43:04;;;;;;;7.85;3.22;;;20.50;68.20;;;;;;3541644;40;20064;-81
2021/06/02 20:45:42;;;;;;;6.22;2.65;;;20.40;68.20;;;;;;3522156;40;20098;-82
2021/06/02 20:48:10;;;;;;;5.32;3.28;;;20.40;68.70;;;;;;3524288;40;20317;-83
2021/06/02 20:50:42;;;;;;;4.32;2.88;;;20.40;69.30;;;;;;3528981;40;20083;-81
2021/06/02 20:53:11;;;;;;;7.30;3.03;;;20.30;69.70;;;;;;3526159;40;20071;-82
2021/06/02 20:55:43;;;;;;;6.95;2.83;;;20.20;70.20;;;;;;3522015;40;20315;-83
2021/06/02 20:58:11;;;;;;;4.40;2.83;;;20.20;70.80;;;;;;3519694;40;20071;-81